Time;durP1;ratioP1;P1;durP2;ratioP2;P2;SDS_P1;SDS_P2;PMS_P1;PMS_P2;Temp;Humidity;BMP_temperature;BMP_pressure;BME280_temperature;BME280_humidity;BME280_pressure;Samples;Min_cycle;Max_cycle;Signal;HPM_P1;HPM_P2
2022/08/21 00:01:37;;;;;;;;;;;;;;;23.89;60.92;99284.19;4430162;32;37942;-77
2022/08/21 00:04:06;;;;;;;;;;;;;;;23.81;60.97;99283.72;4428647;32;39066;-79
2022/08/21 00:06:33;;;;;;;;;;;;;;;23.65;61.95;99278.25;4420057;32;39312;-78
2022/08/21 00:09:01;;;;;;;;;;;;;;;23.71;61.43;99281.56;4430265;32;36889;-77
2022/08/21 00:11:34;;;;;;;;;;;;;;;23.61;61.75;99279.34;4429990;32;38077;-85
2022/08/21 00:14:03;;;;;;;;;;;;;;;23.38;62.93;99276.87;4421074;32;37950;-77
2022/08/21 00:16:30;;;;;;;;;;;;;;;23.74;61.47;99271.72;4424872;32;38539;-78
2022/08/21 00:18:58;;;;;;;;;;;;;;;23.67;61.75;99271.13;4421041;32;36733;-77
2022/08/21 00:21:25;;;;;;;;;;;;;;;23.76;61.69;99263.72;4414902;32;38829;-78
2022/08/21 00:23:52;;;;;;;;;;;;;;;23.68;61.65;99266.69;4414572;32;37937;-77
2022/08/21 00:26:20;;;;;;;;;;;;;;;23.77;61.21;99265.41;4418099;32;38250;-78
2022/08/21 00:28:48;;;;;;;;;;;;;;;23.74;61.75;99265.56;4423981;32;37540;-78
2022/08/21 00:31:16;;;;;;;;;;;;;;;23.85;61.68;99258.00;4426983;32;37833;-79
2022/08/21 00:33:44;;;;;;;;;;;;;;;23.96;60.81;99260.13;4418949;32;37989;-77
2022/08/21 00:36:11;;;;;;;;;;;;;;;23.93;60.32;99261.16;4414555;32;38590;-77
2022/08/21 00:38:39;;;;;;;;;;;;;;;23.57;61.83;99269.81;4422999;32;36493;-77
2022/08/21 00:41:07;;;;;;;;;;;;;;;23.75;60.96;99268.16;4414711;32;38054;-77
2022/08/21 00:43:54;;;;;;;;;;;;;;;23.75;61.17;99267.31;4413571;32;38169;-77
2022/08/21 00:46:22;;;;;;;;;;;;;;;23.79;60.77;99275.00;4414822;32;37244;-77
2022/08/21 00:48:54;;;;;;;;;;;;;;;23.69;61.26;99272.88;4412994;32;37048;-77
2022/08/21 00:51:27;;;;;;;;;;;;;;;23.57;61.58;99267.19;4425455;32;38628;-77
2022/08/21 00:53:56;;;;;;;;;;;;;;;23.43;62.01;99262.53;4413236;32;39057;-78
2022/08/21 00:56:25;;;;;;;;;;;;;;;23.48;61.96;99258.81;4418320;32;39567;-77
2022/08/21 00:58:52;;;;;;;;;;;;;;;23.75;60.79;99262.00;4427581;32;36620;-77
2022/08/21 01:01:21;;;;;;;;;;;;;;;23.54;61.56;99258.53;4429708;32;37982;-77
2022/08/21 01:03:49;;;;;;;;;;;;;;;23.34;62.57;99256.81;4429832;32;37868;-77
2022/08/21 01:06:16;;;;;;;;;;;;;;;23.44;62.14;99253.69;4420203;32;38511;-77
2022/08/21 01:08:43;;;;;;;;;;;;;;;23.40;62.49;99251.25;4429791;32;36497;-77
2022/08/21 01:11:14;;;;;;;;;;;;;;;23.61;61.85;99250.28;4429847;32;39038;-77
2022/08/21 01:13:45;;;;;;;;;;;;;;;23.56;62.03;99257.56;4428331;32;37842;-77
2022/08/21 01:16:13;;;;;;;;;;;;;;;23.58;61.69;99249.53;4419953;32;39513;-77
2022/08/21 01:18:41;;;;;;;;;;;;;;;23.78;60.87;99246.87;4428529;32;36994;-82
2022/08/21 01:21:09;;;;;;;;;;;;;;;23.72;61.10;99251.59;4428211;32;38092;-77
2022/08/21 01:23:39;;;;;;;;;;;;;;;23.48;61.92;99243.81;4422381;32;39029;-77
2022/08/21 01:26:07;;;;;;;;;;;;;;;23.40;62.46;99246.84;4426929;32;39181;-77
2022/08/21 01:28:37;;;;;;;;;;;;;;;23.54;61.86;99237.41;4429609;32;36724;-77
2022/08/21 01:31:05;;;;;;;;;;;;;;;23.44;62.36;99245.75;4432282;32;37378;-77
2022/08/21 01:33:32;;;;;;;;;;;;;;;23.50;62.06;99241.97;4422367;32;37910;-77
2022/08/21 01:36:02;;;;;;;;;;;;;;;23.46;62.11;99239.56;4432602;32;37573;-77
2022/08/21 01:38:29;;;;;;;;;;;;;;;23.40;62.49;99238.06;4434161;32;36873;-77
2022/08/21 01:40:57;;;;;;;;;;;;;;;23.54;61.69;99227.69;4434486;32;37995;-77
2022/08/21 01:43:25;;;;;;;;;;;;;;;23.51;61.91;99238.41;4424980;32;37992;-77
2022/08/21 01:46:06;;;;;;;;;;;;;;;23.26;62.63;99229.91;4417900;32;39078;-77
2022/08/21 01:48:33;;;;;;;;;;;;;;;23.11;63.31;99237.59;4426261;32;36885;-78
2022/08/21 01:51:00;;;;;;;;;;;;;;;22.92;64.36;99234.03;4434394;32;37845;-77
2022/08/21 01:53:28;;;;;;;;;;;;;;;23.31;62.59;99230.56;4431563;32;38970;-77
2022/08/21 01:56:00;;;;;;;;;;;;;;;23.21;62.55;99236.25;4425976;32;39656;-78
2022/08/21 01:58:27;;;;;;;;;;;;;;;22.40;66.24;99241.53;4430203;32;37012;-78
2022/08/21 02:00:54;;;;;;;;;;;;;;;22.83;64.51;99230.00;4417846;32;38661;-82
2022/08/21 02:03:22;;;;;;;;;;;;;;;23.00;63.77;99231.94;4418607;32;37879;-77
2022/08/21 02:06:05;;;;;;;;;;;;;;;23.07;63.38;99233.41;4418118;32;38483;-77
2022/08/21 02:08:32;;;;;;;;;;;;;;;22.83;64.49;99226.53;4423202;32;37850;-77
2022/08/21 02:11:00;;;;;;;;;;;;;;;23.08;63.63;99229.81;4434229;32;38398;-77
2022/08/21 02:13:27;;;;;;;;;;;;;;;23.03;63.84;99231.78;4426858;32;37876;-76
2022/08/21 02:15:54;;;;;;;;;;;;;;;23.28;62.67;99214.84;4431643;32;39391;-79
2022/08/21 02:18:22;;;;;;;;;;;;;;;23.13;63.12;99222.56;4428744;32;36671;-78
2022/08/21 02:20:49;;;;;;;;;;;;;;;23.16;63.27;99222.38;4422159;32;38201;-78
2022/08/21 02:23:23;;;;;;;;;;;;;;;23.00;63.52;99226.66;4418100;32;38465;-77
2022/08/21 02:25:54;;;;;;;;;;;;;;;23.01;63.68;99228.38;4417147;32;38437;-78
2022/08/21 02:28:21;;;;;;;;;;;;;;;22.96;63.97;99230.38;4429150;32;36466;-78
2022/08/21 02:30:49;;;;;;;;;;;;;;;23.19;62.87;99231.97;4432501;32;38127;-78
2022/08/21 02:33:18;;;;;;;;;;;;;;;23.23;62.93;99233.56;4422123;32;38426;-79
2022/08/21 02:35:46;;;;;;;;;;;;;;;23.27;62.39;99235.12;4418059;32;38378;-78
2022/08/21 02:38:17;;;;;;;;;;;;;;;23.16;62.69;99238.22;4418347;32;37278;-78
2022/08/21 02:40:46;;;;;;;;;;;;;;;22.98;63.49;99233.81;4415504;32;37849;-78
2022/08/21 02:43:15;;;;;;;;;;;;;;;22.98;63.29;99228.53;4413751;32;38168;-79
2022/08/21 02:45:42;;;;;;;;;;;;;;;22.97;63.56;99218.88;4418903;32;38356;-77
2022/08/21 02:48:11;;;;;;;;;;;;;;;22.95;63.93;99212.81;4421283;32;36730;-82
2022/08/21 02:50:43;;;;;;;;;;;;;;;23.10;63.07;99217.41;4429119;32;37966;-78
2022/08/21 02:53:13;;;;;;;;;;;;;;;23.12;62.98;99220.81;4430975;32;39115;-82
2022/08/21 02:55:40;;;;;;;;;;;;;;;22.99;63.28;99219.66;4429249;32;38605;-77
2022/08/21 02:58:07;;;;;;;;;;;;;;;22.88;63.81;99224.56;4430785;32;37738;-78
2022/08/21 03:00:35;;;;;;;;;;;;;;;22.75;64.02;99219.81;4432340;32;37904;-76
2022/08/21 03:03:03;;;;;;;;;;;;;;;22.62;64.83;99226.53;4427881;32;38344;-76
2022/08/21 03:05:31;;;;;;;;;;;;;;;22.67;64.70;99229.81;4423738;32;38631;-76
2022/08/21 03:07:59;;;;;;;;;;;;;;;22.72;64.33;99227.84;4421090;32;37066;-77
2022/08/21 03:10:27;;;;;;;;;;;;;;;22.71;64.28;99220.84;4430825;32;38729;-79
2022/08/21 03:12:55;;;;;;;;;;;;;;;22.50;65.48;99227.06;4407611;32;38892;-77
2022/08/21 03:15:23;;;;;;;;;;;;;;;22.57;65.19;99222.38;4420956;32;38117;-77
2022/08/21 03:17:51;;;;;;;;;;;;;;;22.60;65.01;99223.09;4413716;32;36725;-77
2022/08/21 03:20:19;;;;;;;;;;;;;;;22.81;64.18;99225.72;4419700;32;37490;-79
2022/08/21 03:22:46;;;;;;;;;;;;;;;22.84;64.16;99225.59;4413244;32;38395;-77
2022/08/21 03:25:20;;;;;;;;;;;;;;;22.79;64.69;99224.94;4418967;32;38626;-77
2022/08/21 03:28:06;;;;;;;;;;;;;;;23.02;63.46;99230.09;4413625;32;36523;-76
2022/08/21 03:30:34;;;;;;;;;;;;;;;23.05;63.24;99229.94;4417663;32;38791;-76
2022/08/21 03:33:01;;;;;;;;;;;;;;;22.73;64.61;99231.34;4427452;32;38453;-77
2022/08/21 03:35:28;;;;;;;;;;;;;;;22.78;64.48;99231.13;4427033;32;38588;-77
2022/08/21 03:37:56;;;;;;;;;;;;;;;23.05;63.50;99229.94;4430240;32;37009;-78
2022/08/21 03:40:24;;;;;;;;;;;;;;;23.10;63.40;99235.00;4436444;32;37986;-77
2022/08/21 03:42:51;;;;;;;;;;;;;;;23.07;63.25;99232.50;4443208;32;39969;-77
2022/08/21 03:45:19;;;;;;;;;;;;;;;23.00;64.02;99237.22;4438833;32;38400;-76
2022/08/21 03:47:52;;;;;;;;;;;;;;;23.31;62.54;99241.13;4436694;32;37589;-76
2022/08/21 03:50:20;;;;;;;;;;;;;;;22.84;63.80;99231.72;4441217;32;37958;-77
2022/08/21 03:52:47;;;;;;;;;;;;;;;23.08;63.19;99245.66;4436012;32;38017;-76
2022/08/21 03:55:15;;;;;;;;;;;;;;;22.84;64.09;99241.41;4445557;32;38399;-77
2022/08/21 03:57:42;;;;;;;;;;;;;;;22.90;64.24;99244.66;4440919;32;35953;-76
2022/08/21 04:00:11;;;;;;;;;;;;;;;22.85;64.17;99243.16;4435685;32;38873;-76
2022/08/21 04:02:39;;;;;;;;;;;;;;;22.99;63.86;99240.78;4430100;32;38517;-77
2022/08/21 04:05:06;;;;;;;;;;;;;;;23.06;63.31;99244.84;4427578;32;38515;-77
2022/08/21 04:07:34;;;;;;;;;;;;;;;23.20;62.94;99247.75;4434512;32;37577;-77
2022/08/21 04:10:02;;;;;;;;;;;;;;;22.91;64.07;99253.41;4408014;32;37851;-77
2022/08/21 04:12:30;;;;;;;;;;;;;;;22.99;63.46;99251.34;4415419;32;38117;-77
2022/08/21 04:14:57;;;;;;;;;;;;;;;22.93;63.77;99257.75;4414868;32;39146;-76
2022/08/21 04:17:25;;;;;;;;;;;;;;;22.78;64.49;99246.97;4419957;32;36670;-77
2022/08/21 04:19:52;;;;;;;;;;;;;;;22.85;64.17;99253.72;4421942;32;38026;-77
2022/08/21 04:22:20;;;;;;;;;;;;;;;23.19;62.77;99261.84;4426915;32;38200;-77
2022/08/21 04:24:47;;;;;;;;;;;;;;;23.05;63.38;99255.50;4429998;32;38194;-77
2022/08/21 04:27:14;;;;;;;;;;;;;;;22.88;63.99;99264.13;4430119;32;36175;-77
2022/08/21 04:29:41;;;;;;;;;;;;;;;22.95;63.78;99255.06;4424957;32;39377;-77
2022/08/21 04:32:09;;;;;;;;;;;;;;;23.02;63.53;99260.91;4415036;32;38821;-77
2022/08/21 04:34:36;;;;;;;;;;;;;;;22.87;64.19;99262.41;4414123;32;40400;-76
2022/08/21 04:37:04;;;;;;;;;;;;;;;23.12;63.31;99273.62;4414772;32;36677;-76
2022/08/21 04:39:32;;;;;;;;;;;;;;;23.06;63.44;99267.75;4421838;32;39119;-76
2022/08/21 04:41:59;;;;;;;;;;;;;;;23.08;63.38;99266.78;4414550;32;38158;-76
2022/08/21 04:44:26;;;;;;;;;;;;;;;22.97;63.33;99269.91;4419857;32;38316;-78
2022/08/21 04:46:54;;;;;;;;;;;;;;;23.18;62.91;99273.34;4421264;32;36737;-77
2022/08/21 04:49:21;;;;;;;;;;;;;;;23.06;63.09;99273.91;4423041;32;37627;-77
2022/08/21 04:51:48;;;;;;;;;;;;;;;23.04;63.20;99277.53;4422459;32;39552;-77
2022/08/21 04:54:20;;;;;;;;;;;;;;;23.05;63.25;99269.56;4413833;32;39173;-76
2022/08/21 04:56:47;;;;;;;;;;;;;;;23.11;62.95;99277.19;4427571;32;36633;-77
2022/08/21 04:59:16;;;;;;;;;;;;;;;23.04;63.01;99275.78;4421791;32;38839;-80
2022/08/21 05:01:43;;;;;;;;;;;;;;;23.20;62.31;99282.09;4429154;32;38242;-78
2022/08/21 05:04:12;;;;;;;;;;;;;;;23.25;62.23;99278.38;4429783;32;38465;-77
2022/08/21 05:06:40;;;;;;;;;;;;;;;23.18;62.56;99273.34;4426249;32;37516;-77
2022/08/21 05:09:09;;;;;;;;;;;;;;;23.19;62.06;99277.69;4414507;32;37972;-76
2022/08/21 05:11:36;;;;;;;;;;;;;;;23.09;62.50;99284.31;4418555;32;38310;-77
2022/08/21 05:14:04;;;;;;;;;;;;;;;22.98;62.97;99281.31;4428228;32;38878;-77
2022/08/21 05:16:31;;;;;;;;;;;;;;;23.26;61.80;99280.06;4429294;32;37650;-77
2022/08/21 05:19:05;;;;;;;;;;;;;;;23.40;60.96;99290.88;4420547;32;38424;-76
2022/08/21 05:21:37;;;;;;;;;;;;;;;23.22;61.79;99284.63;4428361;32;38159;-77
2022/08/21 05:24:05;;;;;;;;;;;;;;;23.39;61.05;99286.53;4422864;32;39188;-76
2022/08/21 05:26:32;;;;;;;;;;;;;;;23.00;62.57;99290.00;4425072;32;36471;-77
2022/08/21 05:29:12;;;;;;;;;;;;;;;23.18;62.02;99289.19;4429557;32;37977;-77
2022/08/21 05:31:39;;;;;;;;;;;;;;;23.23;61.83;99285.50;4424220;32;39081;-76
2022/08/21 05:34:06;;;;;;;;;;;;;;;23.07;62.57;99288.84;4428087;32;38890;-77
2022/08/21 05:36:34;;;;;;;;;;;;;;;22.98;62.73;99291.87;4429278;32;37355;-77
2022/08/21 05:39:01;;;;;;;;;;;;;;;23.19;61.82;99290.91;4427382;32;38284;-77
2022/08/21 05:41:28;;;;;;;;;;;;;;;23.32;61.98;99290.38;4423543;32;37999;-77
2022/08/21 05:43:56;;;;;;;;;;;;;;;23.41;61.26;99289.94;4414835;32;38225;-80
2022/08/21 05:46:23;;;;;;;;;;;;;;;23.56;60.17;99289.25;4414083;32;35944;-77
2022/08/21 05:48:50;;;;;;;;;;;;;;;23.45;60.75;99294.16;4403154;32;37827;-78
2022/08/21 05:51:18;;;;;;;;;;;;;;;23.31;61.40;99293.94;4428026;32;38385;-82
2022/08/21 05:53:45;;;;;;;;;;;;;;;23.10;61.83;99291.34;4112187;32;10004719;-77
2022/08/21 05:56:13;;;;;;;;;;;;;;;23.33;61.17;99289.47;4426588;32;39959;-78
2022/08/21 05:58:40;;;;;;;;;;;;;;;23.44;60.56;99285.37;4416420;32;36346;-77
2022/08/21 06:01:08;;;;;;;;;;;;;;;23.38;60.80;99284.81;4413797;32;38410;-80
2022/08/21 06:03:38;;;;;;;;;;;;;;;23.33;61.40;99281.53;4439982;32;39222;-77
2022/08/21 06:06:05;;;;;;;;;;;;;;;23.42;60.96;99281.09;4425869;32;38699;-75
2022/08/21 06:08:33;;;;;;;;;;;;;;;23.49;60.77;99279.91;4428436;32;36621;-75
2022/08/21 06:11:01;;;;;;;;;;;;;;;23.45;60.83;99286.22;4424503;32;37669;-77
2022/08/21 06:13:28;;;;;;;;;;;;;;;23.61;60.50;99281.09;4412168;32;37825;-76
2022/08/21 06:16:07;;;;;;;;;;;;;;;23.61;59.92;99284.63;4414447;32;39524;-79
2022/08/21 06:18:35;;;;;;;;;;;;;;;23.65;59.92;99278.25;4431038;32;37026;-79
2022/08/21 06:21:03;;;;;;;;;;;;;;;23.49;60.65;99285.19;4429028;32;38956;-78
2022/08/21 06:23:31;;;;;;;;;;;;;;;23.62;59.86;99285.47;4427238;32;37897;-77
2022/08/21 06:26:04;;;;;;;;;;;;;;;23.51;60.51;99285.97;4118385;32;10005064;-77
2022/08/21 06:28:31;;;;;;;;;;;;;;;23.54;60.98;99291.09;4419293;32;39194;-77
2022/08/21 06:30:59;;;;;;;;;;;;;;;23.69;59.48;99294.88;4424810;32;37698;-77
2022/08/21 06:33:26;;;;;;;;;;;;;;;23.71;59.63;99294.78;4429336;32;38782;-76
2022/08/21 06:35:59;;;;;;;;;;;;;;;23.54;59.90;99296.38;4429150;32;39125;-77
2022/08/21 06:38:27;;;;;;;;;;;;;;;23.47;60.29;99289.69;4421087;32;39541;-77
2022/08/21 06:40:54;;;;;;;;;;;;;;;23.60;59.82;99290.81;4427086;32;38254;-77
2022/08/21 06:43:23;;;;;;;;;;;;;;;23.46;60.37;99298.53;4423975;32;39327;-80
2022/08/21 06:46:07;;;;;;;;;;;;;;;23.84;59.38;99290.66;4427308;32;38008;-77
2022/08/21 06:48:34;;;;;;;;;;;;;;;23.94;59.15;99294.56;4420790;32;38541;-78
2022/08/21 06:51:02;;;;;;;;;;;;;;;24.08;58.08;99286.81;4424123;32;36093;-76
2022/08/21 06:53:30;;;;;;;;;;;;;;;23.87;58.81;99298.44;4427027;32;38762;-76
2022/08/21 06:55:57;;;;;;;;;;;;;;;23.92;58.76;99296.41;4421912;32;39141;-78
2022/08/21 06:58:24;;;;;;;;;;;;;;;23.86;59.24;99300.19;4429793;32;38403;-76
2022/08/21 07:00:52;;;;;;;;;;;;;;;24.34;57.88;99292.63;4428617;32;36817;-77
2022/08/21 07:03:30;;;;;;;;;;;;;;;24.06;58.85;99298.44;4427622;32;37833;-78
2022/08/21 07:05:58;;;;;;;;;;;;;;;24.39;57.49;99289.78;4421010;32;38898;-78
2022/08/21 07:08:25;;;;;;;;;;;;;;;24.27;58.47;99291.22;4428953;32;38256;-90
2022/08/21 07:10:53;;;;;;;;;;;;;;;24.45;57.56;99295.66;4428360;32;37776;-77
2022/08/21 07:13:21;;;;;;;;;;;;;;;24.41;57.43;99294.09;4430593;32;38618;-78
2022/08/21 07:15:48;;;;;;;;;;;;;;;24.56;57.36;99298.59;4430594;32;38398;-78
2022/08/21 07:18:16;;;;;;;;;;;;;;;24.62;57.17;99296.59;4429354;32;39475;-79
2022/08/21 07:20:43;;;;;;;;;;;;;;;24.44;58.00;99290.41;4428775;32;37214;-80
2022/08/21 07:23:12;;;;;;;;;;;;;;;24.69;57.37;99298.00;4424594;32;37628;-77
2022/08/21 07:25:39;;;;;;;;;;;;;;;24.98;56.28;99294.72;4426511;32;38292;-78
2022/08/21 07:28:06;;;;;;;;;;;;;;;25.06;56.61;99287.22;4424268;32;38696;-78
2022/08/21 07:30:34;;;;;;;;;;;;;;;24.90;57.00;99291.59;4427123;32;37475;-79
2022/08/21 07:33:01;;;;;;;;;;;;;;;25.05;55.72;99290.81;4421850;32;38972;-79
2022/08/21 07:35:28;;;;;;;;;;;;;;;24.91;57.06;99298.59;4425191;32;37909;-79
2022/08/21 07:37:56;;;;;;;;;;;;;;;25.37;54.95;99292.75;4430449;32;39199;-80
2022/08/21 07:40:28;;;;;;;;;;;;;;;25.41;54.47;99292.47;4428080;32;36445;-80
2022/08/21 07:42:59;;;;;;;;;;;;;;;25.10;56.16;99293.22;4416181;32;37927;-78
2022/08/21 07:45:26;;;;;;;;;;;;;;;25.19;55.70;99286.63;4429741;32;38197;-78
2022/08/21 07:47:54;;;;;;;;;;;;;;;25.44;54.95;99287.00;4424203;32;39682;-78
2022/08/21 07:50:24;;;;;;;;;;;;;;;25.40;54.68;99285.47;4429997;32;37156;-78
2022/08/21 07:52:51;;;;;;;;;;;;;;;25.27;55.58;99284.41;4420309;32;39485;-80
2022/08/21 07:55:19;;;;;;;;;;;;;;;25.42;55.50;99283.59;4424450;32;37686;-79
2022/08/21 07:57:47;;;;;;;;;;;;;;;25.52;54.64;99273.34;4427558;32;38924;-80
2022/08/21 08:00:15;;;;;;;;;;;;;;;25.38;55.43;99279.41;4423249;32;37482;-80
2022/08/21 08:02:44;;;;;;;;;;;;;;;25.52;54.79;99279.50;4414364;32;38424;-79
2022/08/21 08:05:12;;;;;;;;;;;;;;;25.41;55.68;99281.88;4414388;32;39408;-79
2022/08/21 08:07:39;;;;;;;;;;;;;;;25.67;54.52;99271.66;4415187;32;39476;-78
2022/08/21 08:10:10;;;;;;;;;;;;;;;25.60;54.68;99270.28;4413021;32;36724;-79
2022/08/21 08:12:38;;;;;;;;;;;;;;;25.76;54.80;99276.44;4415220;32;37697;-80
2022/08/21 08:15:07;;;;;;;;;;;;;;;25.88;54.36;99274.94;4421779;32;37776;-78
2022/08/21 08:17:34;;;;;;;;;;;;;;;25.94;53.93;99280.78;4427246;32;38871;-80
2022/08/21 08:20:02;;;;;;;;;;;;;;;26.10;53.65;99269.25;4421959;32;36988;-80
2022/08/21 08:22:29;;;;;;;;;;;;;;;26.23;53.44;99265.00;4422870;32;38117;-80
2022/08/21 08:24:56;;;;;;;;;;;;;;;26.41;52.20;99263.91;4425943;32;38388;-80
2022/08/21 08:27:24;;;;;;;;;;;;;;;25.97;54.87;99259.38;3807805;32;10000805;-80
2022/08/21 08:29:51;;;;;;;;;;;;;;;26.30;53.01;99255.72;4422386;32;20307;-80
2022/08/21 08:32:19;;;;;;;;;;;;;;;26.06;53.83;99257.97;4415898;32;20030;-80
2022/08/21 08:34:48;;;;;;;;;;;;;;;26.17;54.07;99250.28;4415589;32;37741;-80
2022/08/21 08:37:16;;;;;;;;;;;;;;;26.32;53.48;99264.44;4420558;32;38073;-80
2022/08/21 08:39:49;;;;;;;;;;;;;;;26.57;52.82;99263.03;4427211;32;39415;-81
2022/08/21 08:42:25;;;;;;;;;;;;;;;26.09;55.23;99255.16;4427689;32;39402;-80
2022/08/21 08:45:02;;;;;;;;;;;;;;;26.43;54.10;99264.69;4420537;32;36778;-80
2022/08/21 08:47:30;;;;;;;;;;;;;;;26.80;52.48;99265.19;4402113;32;38778;-80
2022/08/21 08:50:06;;;;;;;;;;;;;;;26.95;52.24;99257.25;4419158;32;38829;-80
2022/08/21 08:52:40;;;;;;;;;;;;;;;26.98;51.15;99259.72;4402722;32;38692;-80
2022/08/21 08:55:08;;;;;;;;;;;;;;;26.99;51.92;99264.06;4424193;32;45991;-80
2022/08/21 08:57:36;;;;;;;;;;;;;;;27.19;51.12;99266.41;4429725;32;39028;-80
2022/08/21 09:00:09;;;;;;;;;;;;;;;27.01;52.04;99262.19;4426722;32;38258;-80
2022/08/21 09:02:41;;;;;;;;;;;;;;;26.84;51.05;99261.41;4434627;32;39664;-80
2022/08/21 09:05:12;;;;;;;;;;;;;;;26.78;52.64;99267.09;4430866;32;37633;-80
2022/08/21 09:07:40;;;;;;;;;;;;;;;26.74;51.82;99264.69;4428992;32;38244;-80
2022/08/21 09:10:13;;;;;;;;;;;;;;;27.06;50.91;99265.44;4428237;32;39176;-80
2022/08/21 09:12:59;;;;;;;;;;;;;;;26.77;52.18;99270.69;4432710;32;39374;-80
2022/08/21 09:15:47;;;;;;;;;;;;;;;26.48;54.21;99274.16;4429824;32;37112;-80
2022/08/21 09:18:14;;;;;;;;;;;;;;;26.92;51.97;99257.44;4397400;32;38046;-81
2022/08/21 09:21:00;;;;;;;;;;;;;;;27.10;51.55;99258.97;4414469;32;39282;-80
2022/08/21 09:23:28;;;;;;;;;;;;;;;26.94;52.85;99260.84;4413539;32;37954;-80
2022/08/21 09:26:04;;;;;;;;;;;;;;;27.23;51.17;99264.41;4431930;32;37437;-80
2022/08/21 09:28:35;;;;;;;;;;;;;;;27.12;51.26;99254.37;4427824;32;38080;-80
2022/08/21 09:31:03;;;;;;;;;;;;;;;27.25;50.62;99265.16;4429727;32;38259;-80
2022/08/21 09:33:30;;;;;;;;;;;;;;;27.47;50.06;99254.03;4428382;32;38727;-80
2022/08/21 09:35:58;;;;;;;;;;;;;;;27.46;50.12;99247.03;4428025;32;36518;-80
2022/08/21 09:38:31;;;;;;;;;;;;;;;27.36;51.35;99242.28;4426232;32;38396;-80
2022/08/21 09:41:00;;;;;;;;;;;;;;;27.73;49.36;99250.59;4422582;32;37940;-80
2022/08/21 09:43:28;;;;;;;;;;;;;;;27.74;49.77;99246.97;4427005;32;39624;-80
2022/08/21 09:46:05;;;;;;;;;;;;;;;27.83;49.92;99256.22;4422912;32;35279;-80
2022/08/21 09:48:44;;;;;;;;;;;;;;;27.92;48.70;99244.09;4431021;32;38476;-80
2022/08/21 09:51:21;;;;;;;;;;;;;;;27.67;49.52;99250.12;4432781;32;38371;-80
2022/08/21 09:54:07;;;;;;;;;;;;;;;27.75;49.44;99242.50;4444035;32;39165;-80
2022/08/21 09:59:26;;;;;;;;;;;;;;;27.76;49.47;99245.09;4445623;32;38816;-80
2022/08/21 10:01:57;;;;;;;;;;;;;;;27.57;50.93;99249.88;4452439;32;38105;-80
2022/08/21 10:04:28;;;;;;;;;;;;;;;27.80;50.88;99251.09;4436411;32;38265;-80
2022/08/21 10:07:05;;;;;;;;;;;;;;;27.97;51.52;99252.66;4445169;32;36707;-80
2022/08/21 10:09:32;;;;;;;;;;;;;;;27.99;49.87;99250.75;4444987;32;38244;-80
2022/08/21 10:12:20;;;;;;;;;;;;;;;28.05;50.79;99250.34;4445775;32;38073;-80
2022/08/21 10:15:06;;;;;;;;;;;;;;;28.10;49.33;99253.53;4444100;32;41862;-80
2022/08/21 10:17:43;;;;;;;;;;;;;;;28.07;49.80;99242.25;4431026;32;38255;-80
2022/08/21 10:20:12;;;;;;;;;;;;;;;28.21;49.34;99256.38;4429631;32;37702;-80
2022/08/21 10:22:39;;;;;;;;;;;;;;;28.70;48.74;99255.75;4429764;32;38397;-80
2022/08/21 10:25:25;;;;;;;;;;;;;;;28.81;47.49;99254.16;4426763;32;38998;-80
2022/08/21 10:28:20;;;;;;;;;;;;;;;29.01;46.56;99251.03;4428382;32;37878;-80
2022/08/21 10:30:50;;;;;;;;;;;;;;;28.93;46.55;99254.16;4430951;32;38110;-80
2022/08/21 10:33:24;;;;;;;;;;;;;;;28.80;47.57;99252.47;4441301;32;38077;-80
2022/08/21 10:35:51;;;;;;;;;;;;;;;28.59;48.57;99250.31;4445059;32;38248;-80
2022/08/21 10:38:21;;;;;;;;;;;;;;;28.51;49.79;99255.31;4445959;32;37301;-81
2022/08/21 10:41:18;;;;;;;;;;;;;;;28.63;48.33;99251.81;4436733;32;38392;-80
2022/08/21 10:43:50;;;;;;;;;;;;;;;28.65;47.97;99249.88;4446723;32;38239;-80
2022/08/21 10:46:32;;;;;;;;;;;;;;;28.70;49.29;99242.44;4442571;32;39324;-80
2022/08/21 10:49:05;;;;;;;;;;;;;;;28.95;47.71;99246.09;4419647;32;38684;-81
2022/08/21 10:51:35;;;;;;;;;;;;;;;29.32;47.18;99243.53;4419906;32;38293;-80
2022/08/21 10:54:21;;;;;;;;;;;;;;;29.43;46.35;99235.62;4419065;32;38784;-81
2022/08/21 10:56:51;;;;;;;;;;;;;;;29.47;45.73;99237.09;4405797;32;38886;-82
2022/08/21 10:59:26;;;;;;;;;;;;;;;29.51;45.78;99237.72;4414471;32;37494;-81
2022/08/21 11:01:59;;;;;;;;;;;;;;;29.54;46.62;99238.34;4415538;32;38212;-81
2022/08/21 11:04:45;;;;;;;;;;;;;;;29.75;44.80;99236.00;4419598;32;38529;-81
2022/08/21 11:07:29;;;;;;;;;;;;;;;29.06;49.50;99235.53;4415876;32;38745;-80
2022/08/21 11:10:10;;;;;;;;;;;;;;;29.06;49.02;99227.56;4416397;32;36594;-81
2022/08/21 11:12:41;;;;;;;;;;;;;;;29.29;49.83;99228.63;4392722;32;38585;-81
2022/08/21 11:15:26;;;;;;;;;;;;;;;29.56;48.09;99235.59;4420371;32;38117;-81
2022/08/21 11:18:08;;;;;;;;;;;;;;;29.76;44.91;99234.16;4422490;32;38756;-82
2022/08/21 11:20:54;;;;;;;;;;;;;;;29.61;45.07;99231.66;4426813;32;36770;-81
2022/08/21 11:23:22;;;;;;;;;;;;;;;29.28;45.34;99226.03;4423545;32;37935;-81
2022/08/21 11:25:55;;;;;;;;;;;;;;;28.74;49.53;99227.09;4428144;32;37993;-81
2022/08/21 11:28:30;;;;;;;;;;;;;;;29.17;46.86;99225.00;4423799;32;38334;-81
2022/08/21 11:31:02;;;;;;;;;;;;;;;29.16;46.57;99225.97;4414093;32;36960;-81
2022/08/21 11:33:32;;;;;;;;;;;;;;;28.90;47.08;99218.91;4413712;32;38119;-81
2022/08/21 11:36:08;;;;;;;;;;;;;;;28.72;48.32;99224.56;4414685;32;37898;-81
2022/08/21 11:38:41;;;;;;;;;;;;;;;28.54;48.89;99225.81;4426420;32;39753;-81
2022/08/21 11:41:11;;;;;;;;;;;;;;;28.51;48.33;99223.34;4417339;32;36844;-81
2022/08/21 11:43:41;;;;;;;;;;;;;;;28.99;46.78;99223.59;4424025;32;38280;-81
2022/08/21 11:46:17;;;;;;;;;;;;;;;28.94;47.01;99217.72;4428469;32;37949;-81
2022/08/21 11:49:00;;;;;;;;;;;;;;;29.04;46.37;99224.16;4418677;32;38361;-81
2022/08/21 11:51:31;;;;;;;;;;;;;;;28.82;48.64;99218.59;4436761;32;36653;-81
2022/08/21 11:54:12;;;;;;;;;;;;;;;28.88;46.34;99207.50;4423728;32;37922;-80
2022/08/21 11:56:42;;;;;;;;;;;;;;;28.87;46.58;99209.28;4414805;32;38170;-81
2022/08/21 11:59:12;;;;;;;;;;;;;;;28.53;47.80;99218.78;4419932;32;37981;-78
2022/08/21 12:01:41;;;;;;;;;;;;;;;28.66;46.78;99214.31;4422293;32;36375;-82
2022/08/21 12:04:28;;;;;;;;;;;;;;;28.36;48.69;99211.03;4399665;32;36918;-81
2022/08/21 12:06:56;;;;;;;;;;;;;;;28.35;48.24;99214.66;4428774;32;37294;-81
2022/08/21 12:09:23;;;;;;;;;;;;;;;28.16;48.02;99215.87;4432904;32;39464;-81
2022/08/21 12:11:59;;;;;;;;;;;;;;;27.90;49.41;99211.44;4422029;32;37905;-80
2022/08/21 12:14:43;;;;;;;;;;;;;;;27.49;51.11;99212.28;4413705;32;38607;-80
2022/08/21 12:17:20;;;;;;;;;;;;;;;27.63;50.74;99217.53;4423249;32;38195;-81
2022/08/21 12:20:01;;;;;;;;;;;;;;;27.69;49.90;99210.97;4415149;32;38512;-82
2022/08/21 12:22:38;;;;;;;;;;;;;;;27.50;50.69;99208.66;4414735;32;37760;-82
2022/08/21 12:25:10;;;;;;;;;;;;;;;27.45;50.55;99208.97;4413617;32;37899;-83
2022/08/21 12:27:44;;;;;;;;;;;;;;;27.68;50.46;99210.13;4416841;32;38664;-82
2022/08/21 12:30:27;;;;;;;;;;;;;;;27.55;50.39;99211.88;4423153;32;39595;-82
2022/08/21 12:32:56;;;;;;;;;;;;;;;27.66;50.60;99212.03;4430794;32;37498;-82
2022/08/21 12:35:44;;;;;;;;;;;;;;;27.61;50.19;99206.16;4429821;32;37851;-82
2022/08/21 12:38:15;;;;;;;;;;;;;;;27.41;51.13;99201.25;4418351;32;38185;-82
2022/08/21 12:40:46;;;;;;;;;;;;;;;27.42;50.84;99197.66;4429351;32;39408;-82
2022/08/21 12:43:15;;;;;;;;;;;;;;;27.52;50.26;99199.63;4425363;32;36237;-83
2022/08/21 12:45:44;;;;;;;;;;;;;;;27.48;50.61;99202.59;4420622;32;37872;-82
2022/08/21 12:48:23;;;;;;;;;;;;;;;27.12;51.83;99211.88;4422895;32;39701;-82
2022/08/21 12:51:00;;;;;;;;;;;;;;;27.51;50.25;99197.94;4428866;32;38988;-82
2022/08/21 12:53:32;;;;;;;;;;;;;;;27.35;50.67;99203.38;4429549;32;36656;-82
2022/08/21 12:56:03;;;;;;;;;;;;;;;27.20;51.28;99193.69;4417900;32;38867;-82
2022/08/21 12:58:31;;;;;;;;;;;;;;;26.91;52.39;99198.13;4419592;32;38111;-82
2022/08/21 13:01:06;;;;;;;;;;;;;;;27.24;51.02;99200.53;4413104;32;38433;-83
2022/08/21 13:03:35;;;;;;;;;;;;;;;27.11;52.28;99199.56;4411202;32;37573;-82
2022/08/21 13:06:03;;;;;;;;;;;;;;;27.28;50.79;99195.88;4421490;32;38487;-83